ETH122 OPKC-DNMM
Flight info
| Callsign | ETH122 |
|---|---|
| Flight time | N/A |
| Altitude | 36000 |
| Route | MELOM A325 BIVIN A791 PEDEX L430 NOVSU N312 KHM A453 BHR B457 NARMI N112 ULDEG N687 KSA/N0494F380 G782 RGB M309 VEMEM G782 JDW M863 KITOB UM863 IPONO/N0486F400 UM863 FL UG660 MIU UG626 JOS UJ332 GURAP UH340 ERSED ERSED1N |
| Aircraft | A35K/H-SDE2E3GHIJ3J4J5LM1ORWXY/LB1D1 |
Departure
| Time | 2026-05-04 06:22 |
|---|---|
| Airport | Jinnah International Airport (OPKC) |
Arrival
| Time | N/A |
|---|---|
| Airport | Murtala Muhammed International Airport (DNMM) |
| Time | Latitude | Longitude | Altitude | Speed | Heading |
|---|---|---|---|---|---|
| 2026-05-04 05:57 | 24.90326 | 67.16906 | 102 ft | 0 kts | 163° |
| 2026-05-04 06:05 | 24.90327 | 67.16906 | 102 ft | 0 kts | 163° |
| 2026-05-04 06:14 | 24.90361 | 67.16889 | 100 ft | 3 kts | 137° |
| 2026-05-04 06:14 | 24.90375 | 67.16869 | 102 ft | 3 kts | 114° |
| 2026-05-04 06:15 | 24.90380 | 67.16856 | 99 ft | 3 kts | 102° |
| 2026-05-04 06:15 | 24.90381 | 67.16837 | 99 ft | 3 kts | 84° |
| 2026-05-04 06:15 | 24.90379 | 67.16824 | 99 ft | 0 kts | 73° |
| 2026-05-04 06:17 | 24.90380 | 67.16826 | 99 ft | 1 kts | 73° |
| 2026-05-04 06:18 | 24.90395 | 67.16873 | 103 ft | 12 kts | 69° |
| 2026-05-04 06:18 | 24.90430 | 67.16975 | 104 ft | 15 kts | 70° |
| 2026-05-04 06:18 | 24.90499 | 67.17039 | 103 ft | 14 kts | 3° |
| 2026-05-04 06:20 | 24.90808 | 67.17495 | 105 ft | 12 kts | 2° |
| 2026-05-04 06:20 | 24.90860 | 67.17440 | 105 ft | 11 kts | 279° |
| 2026-05-04 06:21 | 24.90715 | 67.16846 | 105 ft | 94 kts | 254° |
| 2026-05-04 06:21 | 24.90489 | 67.15952 | 97 ft | 146 kts | 255° |
| 2026-05-04 06:22 | 24.90166 | 67.14743 | 334 ft | 165 kts | 258° |
| 2026-05-04 06:22 | 24.89856 | 67.13565 | 1038 ft | 159 kts | 259° |
| 2026-05-04 06:25 | 24.78453 | 66.94193 | 6867 ft | 261 kts | 279° |
| 2026-05-04 06:25 | 24.78682 | 66.92211 | 7486 ft | 263 kts | 278° |
| 2026-05-04 06:26 | 24.78907 | 66.90205 | 8136 ft | 264 kts | 278° |
| 2026-05-04 06:26 | 24.79126 | 66.88200 | 8822 ft | 265 kts | 278° |
| 2026-05-04 06:26 | 24.79344 | 66.86182 | 9528 ft | 266 kts | 277° |
| 2026-05-04 06:26 | 24.79559 | 66.84168 | 10073 ft | 274 kts | 277° |
| 2026-05-04 06:27 | 24.83484 | 66.76228 | 11014 ft | 340 kts | 315° |
| 2026-05-04 06:28 | 24.85252 | 66.74411 | 11257 ft | 353 kts | 315° |
| 2026-05-04 06:28 | 24.87069 | 66.72524 | 11492 ft | 364 kts | 315° |
| 2026-05-04 06:28 | 24.88924 | 66.70585 | 11879 ft | 370 kts | 315° |
| 2026-05-04 06:28 | 24.90796 | 66.68620 | 12348 ft | 374 kts | 315° |
| 2026-05-04 06:29 | 24.92690 | 66.66625 | 12814 ft | 377 kts | 315° |
| 2026-05-04 06:29 | 24.94598 | 66.64614 | 13293 ft | 380 kts | 315° |
| 2026-05-04 06:29 | 24.96519 | 66.62587 | 13732 ft | 384 kts | 316° |
| 2026-05-04 06:29 | 24.98453 | 66.60544 | 14157 ft | 386 kts | 316° |
| 2026-05-04 06:30 | 25.00401 | 66.58487 | 14597 ft | 389 kts | 316° |
| 2026-05-04 06:30 | 25.02359 | 66.56412 | 15032 ft | 391 kts | 315° |
| 2026-05-04 06:30 | 25.04200 | 66.54198 | 15457 ft | 394 kts | 308° |
| 2026-05-04 06:30 | 25.05704 | 66.51667 | 15891 ft | 396 kts | 298° |
| 2026-05-04 06:31 | 25.06773 | 66.48855 | 16318 ft | 400 kts | 289° |
| 2026-05-04 06:31 | 25.07571 | 66.45901 | 16744 ft | 403 kts | 286° |
| 2026-05-04 06:31 | 25.08250 | 66.42937 | 17160 ft | 406 kts | 284° |
| 2026-05-04 06:31 | 25.08894 | 66.39888 | 17585 ft | 409 kts | 284° |
| 2026-05-04 06:32 | 25.09528 | 66.36821 | 18017 ft | 411 kts | 284° |
| 2026-05-04 06:33 | 25.14249 | 66.15061 | 20943 ft | 422 kts | 285° |
| 2026-05-04 06:34 | 25.14934 | 66.11948 | 21374 ft | 424 kts | 285° |
| 2026-05-04 06:34 | 25.15631 | 66.08779 | 21808 ft | 425 kts | 285° |
| 2026-05-04 06:34 | 25.16329 | 66.05595 | 22241 ft | 427 kts | 285° |
| 2026-05-04 06:34 | 25.17030 | 66.02394 | 22670 ft | 429 kts | 285° |
| 2026-05-04 06:35 | 25.17732 | 65.99184 | 23081 ft | 432 kts | 285° |
| 2026-05-04 06:36 | 25.22702 | 65.76347 | 25873 ft | 441 kts | 286° |
| 2026-05-04 06:37 | 25.23415 | 65.73056 | 26311 ft | 442 kts | 286° |
| 2026-05-04 06:37 | 25.24122 | 65.69791 | 26728 ft | 443 kts | 287° |
| 2026-05-04 06:37 | 25.24840 | 65.66467 | 27155 ft | 445 kts | 287° |
| 2026-05-04 06:37 | 25.25561 | 65.63130 | 27566 ft | 446 kts | 287° |
| 2026-05-04 06:38 | 25.26282 | 65.59792 | 27952 ft | 448 kts | 287° |
| 2026-05-04 06:38 | 25.27005 | 65.56434 | 28356 ft | 450 kts | 287° |
| 2026-05-04 06:40 | 25.32071 | 65.32813 | 31187 ft | 447 kts | 287° |
| 2026-05-04 06:40 | 25.32781 | 65.29478 | 31581 ft | 445 kts | 287° |
| 2026-05-04 06:40 | 25.33488 | 65.26151 | 31983 ft | 443 kts | 287° |
| 2026-05-04 06:40 | 25.34191 | 65.22841 | 32376 ft | 441 kts | 287° |
| 2026-05-04 06:41 | 25.34891 | 65.19542 | 32745 ft | 440 kts | 287° |
| 2026-05-04 06:41 | 25.35590 | 65.16255 | 33121 ft | 438 kts | 286° |
| 2026-05-04 06:41 | 25.36285 | 65.12976 | 33499 ft | 437 kts | 286° |
| 2026-05-04 06:41 | 25.36975 | 65.09718 | 33875 ft | 435 kts | 286° |
| 2026-05-04 06:42 | 25.37653 | 65.06507 | 34156 ft | 434 kts | 286° |
| 2026-05-04 06:42 | 25.38341 | 65.03250 | 34404 ft | 435 kts | 286° |
| 2026-05-04 06:42 | 25.39029 | 64.99991 | 34616 ft | 435 kts | 286° |
| 2026-05-04 06:44 | 25.41348 | 64.76671 | 35759 ft | 452 kts | 268° |
| 2026-05-04 06:44 | 25.40593 | 64.69797 | 35757 ft | 452 kts | 268° |
| 2026-05-04 06:45 | 25.39806 | 64.62901 | 35760 ft | 452 kts | 268° |
| 2026-05-04 06:45 | 25.39040 | 64.55981 | 35761 ft | 452 kts | 268° |
| 2026-05-04 06:46 | 25.38287 | 64.49075 | 35756 ft | 452 kts | 268° |
| 2026-05-04 06:46 | 25.37534 | 64.42153 | 35758 ft | 456 kts | 268° |
| 2026-05-04 06:48 | 25.34401 | 64.13810 | 35760 ft | 457 kts | 267° |
| 2026-05-04 06:50 | 25.31292 | 63.86116 | 35764 ft | 454 kts | 267° |
| 2026-05-04 06:51 | 25.30506 | 63.79200 | 35762 ft | 454 kts | 267° |
| 2026-05-04 06:51 | 25.29720 | 63.72315 | 35766 ft | 454 kts | 267° |
| 2026-05-04 06:52 | 25.28927 | 63.65391 | 35766 ft | 454 kts | 267° |
| 2026-05-04 06:52 | 25.28130 | 63.58467 | 35769 ft | 454 kts | 267° |
| 2026-05-04 06:53 | 25.27330 | 63.51540 | 35768 ft | 455 kts | 267° |
| 2026-05-04 06:53 | 25.26526 | 63.44614 | 35765 ft | 455 kts | 266° |
| 2026-05-04 06:54 | 25.25719 | 63.37688 | 35768 ft | 455 kts | 266° |
| 2026-05-04 06:54 | 25.24908 | 63.30750 | 35771 ft | 455 kts | 266° |
| 2026-05-04 06:55 | 25.24099 | 63.23863 | 35772 ft | 455 kts | 266° |
| 2026-05-04 06:55 | 25.23281 | 63.16933 | 35770 ft | 455 kts | 266° |
| 2026-05-04 06:57 | 25.19979 | 62.89224 | 35776 ft | 455 kts | 266° |
| 2026-05-04 06:58 | 25.19147 | 62.82300 | 35777 ft | 455 kts | 266° |
| 2026-05-04 06:58 | 25.18309 | 62.75363 | 35776 ft | 455 kts | 266° |
| 2026-05-04 06:59 | 25.17473 | 62.68472 | 35776 ft | 455 kts | 266° |
| 2026-05-04 06:59 | 25.16628 | 62.61538 | 35778 ft | 455 kts | 266° |
| 2026-05-04 07:01 | 25.13220 | 62.33830 | 35782 ft | 455 kts | 266° |
| 2026-05-04 07:02 | 25.12364 | 62.26945 | 35782 ft | 456 kts | 266° |
| 2026-05-04 07:02 | 25.11501 | 62.20017 | 35784 ft | 455 kts | 265° |
| 2026-05-04 07:03 | 25.10633 | 62.13087 | 35782 ft | 456 kts | 265° |
| 2026-05-04 07:03 | 25.09762 | 62.06156 | 35779 ft | 456 kts | 265° |
| 2026-05-04 07:04 | 25.09037 | 62.00404 | 35786 ft | 455 kts | 265° |
| 2026-05-04 07:04 | 25.08161 | 61.93486 | 35787 ft | 455 kts | 265° |
| 2026-05-04 07:05 | 25.07282 | 61.86561 | 35783 ft | 455 kts | 265° |
| 2026-05-04 07:05 | 25.06567 | 61.79626 | 35780 ft | 453 kts | 271° |
| 2026-05-04 07:06 | 25.06971 | 61.69246 | 35781 ft | 451 kts | 276° |
| 2026-05-04 07:07 | 25.07405 | 61.62341 | 35782 ft | 451 kts | 276° |
| 2026-05-04 07:09 | 25.09176 | 61.34754 | 35792 ft | 451 kts | 276° |
| 2026-05-04 07:09 | 25.09621 | 61.27836 | 35776 ft | 451 kts | 276° |
| 2026-05-04 07:10 | 25.10060 | 61.20925 | 35774 ft | 451 kts | 276° |
| 2026-05-04 07:12 | 25.11783 | 60.93288 | 35771 ft | 452 kts | 276° |
| 2026-05-04 07:12 | 25.12206 | 60.86369 | 35783 ft | 452 kts | 276° |
| 2026-05-04 07:13 | 25.12626 | 60.79446 | 35784 ft | 452 kts | 276° |
| 2026-05-04 07:13 | 25.13041 | 60.72557 | 35769 ft | 452 kts | 276° |
| 2026-05-04 07:14 | 25.14069 | 60.55239 | 35784 ft | 453 kts | 275° |
| 2026-05-04 07:15 | 25.14462 | 60.48288 | 35777 ft | 453 kts | 275° |
| 2026-05-04 07:15 | 25.14851 | 60.41361 | 35775 ft | 453 kts | 275° |
| 2026-05-04 07:16 | 25.15241 | 60.34411 | 35770 ft | 453 kts | 275° |
| 2026-05-04 07:16 | 25.15628 | 60.27473 | 35782 ft | 453 kts | 275° |
| 2026-05-04 07:17 | 25.16014 | 60.20518 | 35772 ft | 454 kts | 275° |
| 2026-05-04 07:17 | 25.16395 | 60.13604 | 35776 ft | 454 kts | 275° |
| 2026-05-04 07:18 | 25.16764 | 60.06647 | 35782 ft | 454 kts | 275° |
| 2026-05-04 07:18 | 25.17123 | 59.99690 | 35776 ft | 454 kts | 275° |
| 2026-05-04 07:19 | 25.17482 | 59.92725 | 35774 ft | 454 kts | 275° |
| 2026-05-04 07:19 | 25.17839 | 59.85766 | 35791 ft | 454 kts | 275° |
| 2026-05-04 07:20 | 25.18193 | 59.78809 | 35775 ft | 454 kts | 275° |
| 2026-05-04 07:20 | 25.18545 | 59.71847 | 35783 ft | 454 kts | 275° |
| 2026-05-04 07:22 | 25.19929 | 59.44025 | 35781 ft | 454 kts | 276° |
| 2026-05-04 07:23 | 25.21212 | 59.37252 | 35773 ft | 452 kts | 290° |
| 2026-05-04 07:23 | 25.24211 | 59.31164 | 35781 ft | 453 kts | 306° |
| 2026-05-04 07:24 | 25.28303 | 59.25857 | 35777 ft | 455 kts | 310° |
| 2026-05-04 07:24 | 25.32563 | 59.20679 | 35787 ft | 455 kts | 310° |
| 2026-05-04 07:26 | 25.49443 | 58.99891 | 35782 ft | 454 kts | 309° |
| 2026-05-04 07:27 | 25.53653 | 58.94667 | 35783 ft | 454 kts | 309° |
| 2026-05-04 07:27 | 25.57861 | 58.89440 | 35790 ft | 454 kts | 309° |
| 2026-05-04 07:28 | 25.62073 | 58.84203 | 35777 ft | 454 kts | 309° |
| 2026-05-04 07:28 | 25.66275 | 58.78973 | 35773 ft | 454 kts | 309° |
| 2026-05-04 07:29 | 25.70468 | 58.73746 | 35781 ft | 454 kts | 309° |
| 2026-05-04 07:29 | 25.74651 | 58.68528 | 35791 ft | 453 kts | 309° |
| 2026-05-04 07:30 | 25.78836 | 58.63300 | 35776 ft | 453 kts | 309° |
| 2026-05-04 07:30 | 25.83023 | 58.58064 | 35772 ft | 453 kts | 309° |
| 2026-05-04 07:31 | 25.87210 | 58.52822 | 35784 ft | 454 kts | 309° |
| 2026-05-04 07:33 | 26.03932 | 58.31825 | 35783 ft | 452 kts | 309° |
| 2026-05-04 07:33 | 26.08072 | 58.26608 | 35785 ft | 452 kts | 309° |
| 2026-05-04 07:34 | 26.12214 | 58.21386 | 35789 ft | 452 kts | 309° |
| 2026-05-04 07:34 | 26.16376 | 58.16134 | 35794 ft | 451 kts | 309° |
| 2026-05-04 07:35 | 26.20524 | 58.10893 | 35797 ft | 451 kts | 309° |
| 2026-05-04 07:35 | 26.24672 | 58.05645 | 35804 ft | 451 kts | 308° |
| 2026-05-04 07:36 | 26.28794 | 58.00423 | 35805 ft | 450 kts | 308° |
| 2026-05-04 07:38 | 26.45294 | 57.79461 | 35827 ft | 448 kts | 308° |
| 2026-05-04 07:38 | 26.49407 | 57.74221 | 35829 ft | 448 kts | 308° |
| 2026-05-04 07:39 | 26.53477 | 57.68945 | 35830 ft | 447 kts | 305° |
| 2026-05-04 07:39 | 26.56595 | 57.62998 | 35825 ft | 443 kts | 291° |
| 2026-05-04 07:40 | 26.58178 | 57.56378 | 35823 ft | 443 kts | 281° |
| 2026-05-04 07:40 | 26.59225 | 57.49582 | 35815 ft | 443 kts | 279° |
| 2026-05-04 07:41 | 26.60202 | 57.42787 | 35808 ft | 443 kts | 279° |
| 2026-05-04 07:41 | 26.61191 | 57.36036 | 35804 ft | 443 kts | 280° |
| 2026-05-04 07:42 | 26.62202 | 57.29242 | 35794 ft | 443 kts | 280° |
| 2026-05-04 07:42 | 26.63218 | 57.22441 | 35792 ft | 443 kts | 280° |
| 2026-05-04 07:43 | 26.64229 | 57.15650 | 35789 ft | 443 kts | 280° |
| 2026-05-04 07:43 | 26.65237 | 57.08843 | 35787 ft | 443 kts | 279° |
| 2026-05-04 07:44 | 26.66238 | 57.02057 | 35787 ft | 443 kts | 279° |
| 2026-05-04 07:44 | 26.67234 | 56.95287 | 35787 ft | 443 kts | 279° |
| 2026-05-04 07:45 | 26.68229 | 56.88499 | 35786 ft | 443 kts | 279° |
| 2026-05-04 07:45 | 26.69223 | 56.81692 | 35781 ft | 443 kts | 279° |
| 2026-05-04 07:46 | 26.70213 | 56.74896 | 35782 ft | 443 kts | 279° |
| 2026-05-04 07:46 | 26.71201 | 56.68086 | 35782 ft | 443 kts | 279° |
| 2026-05-04 07:47 | 26.72185 | 56.61278 | 35783 ft | 443 kts | 279° |
| 2026-05-04 07:49 | 26.74216 | 56.33832 | 35780 ft | 445 kts | 269° |
| 2026-05-04 07:49 | 26.73994 | 56.28089 | 35782 ft | 445 kts | 269° |
| 2026-05-04 07:50 | 26.73682 | 56.20047 | 35779 ft | 445 kts | 269° |
| 2026-05-04 07:50 | 26.73698 | 56.14257 | 35782 ft | 444 kts | 276° |
| 2026-05-04 07:51 | 26.74376 | 56.07390 | 35782 ft | 444 kts | 277° |
| 2026-05-04 07:51 | 26.75163 | 56.00581 | 35790 ft | 444 kts | 277° |
| 2026-05-04 07:52 | 26.75967 | 55.93724 | 35791 ft | 444 kts | 277° |
| 2026-05-04 07:52 | 26.76423 | 55.86826 | 35791 ft | 444 kts | 273° |
| 2026-05-04 07:54 | 26.77197 | 55.59208 | 35797 ft | 445 kts | 272° |
| 2026-05-04 07:55 | 26.77383 | 55.52294 | 35797 ft | 445 kts | 272° |
| 2026-05-04 07:55 | 26.77566 | 55.45357 | 35798 ft | 445 kts | 272° |
| 2026-05-04 07:56 | 26.77745 | 55.38432 | 35798 ft | 445 kts | 272° |
| 2026-05-04 07:56 | 26.77920 | 55.31508 | 35805 ft | 445 kts | 272° |
| 2026-05-04 07:57 | 26.78092 | 55.24594 | 35806 ft | 445 kts | 272° |
| 2026-05-04 07:57 | 26.78260 | 55.17661 | 35808 ft | 445 kts | 272° |
| 2026-05-04 07:58 | 26.78424 | 55.10741 | 35809 ft | 445 kts | 272° |
| 2026-05-04 07:58 | 26.78587 | 55.03855 | 35812 ft | 445 kts | 272° |
| 2026-05-04 07:59 | 26.78746 | 54.96930 | 35817 ft | 445 kts | 271° |
| 2026-05-04 07:59 | 26.78898 | 54.90015 | 35821 ft | 444 kts | 271° |
| 2026-05-04 08:00 | 26.79040 | 54.83091 | 35822 ft | 445 kts | 271° |
| 2026-05-04 08:02 | 26.79578 | 54.55431 | 35822 ft | 445 kts | 271° |
| 2026-05-04 08:02 | 26.79699 | 54.48504 | 35820 ft | 445 kts | 271° |
| 2026-05-04 08:03 | 26.79816 | 54.41584 | 35819 ft | 445 kts | 271° |
| 2026-05-04 08:03 | 26.79931 | 54.34659 | 35818 ft | 445 kts | 271° |
| 2026-05-04 08:04 | 26.80044 | 54.27733 | 35817 ft | 445 kts | 271° |
| 2026-05-04 08:04 | 26.80151 | 54.20813 | 35819 ft | 444 kts | 271° |
| 2026-05-04 08:05 | 26.80256 | 54.13887 | 35816 ft | 445 kts | 271° |
| 2026-05-04 08:05 | 26.80357 | 54.06959 | 35817 ft | 445 kts | 271° |
| 2026-05-04 08:06 | 26.80456 | 54.00029 | 35812 ft | 445 kts | 271° |
| 2026-05-04 08:06 | 26.80551 | 53.93099 | 35815 ft | 445 kts | 271° |
| 2026-05-04 08:08 | 26.80897 | 53.65417 | 35808 ft | 445 kts | 270° |